sensor_id;sensor_type;location;lat;lon;timestamp;P1;durP1;ratioP1;P2;durP2;ratioP2
9892;SDS011;4985;49.092;8.542;2022-10-19T00:01:11;3.95;;;2.45;;
9892;SDS011;4985;49.092;8.542;2022-10-19T00:03:39;3.90;;;2.87;;
9892;SDS011;4985;49.092;8.542;2022-10-19T00:06:09;4.97;;;3.15;;
9892;SDS011;4985;49.092;8.542;2022-10-19T00:08:37;4.47;;;2.25;;
9892;SDS011;4985;49.092;8.542;2022-10-19T00:11:04;2.80;;;2.17;;
9892;SDS011;4985;49.092;8.542;2022-10-19T00:13:31;2.90;;;2.47;;
9892;SDS011;4985;49.092;8.542;2022-10-19T00:15:59;3.70;;;2.70;;
9892;SDS011;4985;49.092;8.542;2022-10-19T00:18:26;7.28;;;2.45;;
9892;SDS011;4985;49.092;8.542;2022-10-19T00:21:00;5.22;;;2.42;;
9892;SDS011;4985;49.092;8.542;2022-10-19T00:23:28;2.55;;;2.25;;
9892;SDS011;4985;49.092;8.542;2022-10-19T00:25:55;3.50;;;2.87;;
9892;SDS011;4985;49.092;8.542;2022-10-19T00:28:21;3.03;;;2.47;;
9892;SDS011;4985;49.092;8.542;2022-10-19T00:30:48;3.35;;;2.83;;
9892;SDS011;4985;49.092;8.542;2022-10-19T00:33:16;6.30;;;2.55;;
9892;SDS011;4985;49.092;8.542;2022-10-19T00:35:45;3.47;;;2.83;;
9892;SDS011;4985;49.092;8.542;2022-10-19T00:38:13;3.72;;;2.80;;
9892;SDS011;4985;49.092;8.542;2022-10-19T00:40:41;6.43;;;2.67;;
9892;SDS011;4985;49.092;8.542;2022-10-19T00:43:08;4.28;;;2.90;;
9892;SDS011;4985;49.092;8.542;2022-10-19T00:45:37;3.92;;;3.22;;
9892;SDS011;4985;49.092;8.542;2022-10-19T00:48:04;4.37;;;3.03;;
9892;SDS011;4985;49.092;8.542;2022-10-19T00:50:32;3.70;;;3.25;;
9892;SDS011;4985;49.092;8.542;2022-10-19T00:52:59;3.58;;;3.05;;
9892;SDS011;4985;49.092;8.542;2022-10-19T00:55:25;3.35;;;3.05;;
9892;SDS011;4985;49.092;8.542;2022-10-19T00:57:52;3.60;;;2.70;;
9892;SDS011;4985;49.092;8.542;2022-10-19T01:00:19;3.58;;;2.97;;
9892;SDS011;4985;49.092;8.542;2022-10-19T01:02:46;3.22;;;2.75;;
9892;SDS011;4985;49.092;8.542;2022-10-19T01:05:13;3.70;;;3.22;;
9892;SDS011;4985;49.092;8.542;2022-10-19T01:07:41;3.45;;;2.70;;
9892;SDS011;4985;49.092;8.542;2022-10-19T01:10:08;3.10;;;2.80;;
9892;SDS011;4985;49.092;8.542;2022-10-19T01:12:42;4.25;;;3.03;;
9892;SDS011;4985;49.092;8.542;2022-10-19T01:15:19;5.00;;;3.65;;
9892;SDS011;4985;49.092;8.542;2022-10-19T01:17:53;4.20;;;3.50;;
9892;SDS011;4985;49.092;8.542;2022-10-19T01:20:38;3.45;;;2.90;;
9892;SDS011;4985;49.092;8.542;2022-10-19T01:23:44;5.95;;;3.70;;
9892;SDS011;4985;49.092;8.542;2022-10-19T01:30:04;4.15;;;3.42;;
9892;SDS011;4985;49.092;8.542;2022-10-19T01:32:37;5.25;;;3.37;;
9892;SDS011;4985;49.092;8.542;2022-10-19T01:35:15;5.18;;;3.78;;
9892;SDS011;4985;49.092;8.542;2022-10-19T01:37:51;6.18;;;3.60;;
9892;SDS011;4985;49.092;8.542;2022-10-19T01:40:27;5.03;;;4.03;;
9892;SDS011;4985;49.092;8.542;2022-10-19T01:43:00;4.47;;;3.80;;
9892;SDS011;4985;49.092;8.542;2022-10-19T01:45:35;5.90;;;3.78;;
9892;SDS011;4985;49.092;8.542;2022-10-19T01:48:06;8.52;;;4.70;;
9892;SDS011;4985;49.092;8.542;2022-10-19T01:50:37;5.10;;;3.90;;
9892;SDS011;4985;49.092;8.542;2022-10-19T01:53:09;4.47;;;3.50;;
9892;SDS011;4985;49.092;8.542;2022-10-19T01:55:38;4.35;;;3.55;;
9892;SDS011;4985;49.092;8.542;2022-10-19T01:58:08;4.95;;;3.80;;
9892;SDS011;4985;49.092;8.542;2022-10-19T02:00:40;4.93;;;4.37;;
9892;SDS011;4985;49.092;8.542;2022-10-19T02:03:10;5.55;;;4.40;;
9892;SDS011;4985;49.092;8.542;2022-10-19T02:05:38;5.43;;;4.37;;
9892;SDS011;4985;49.092;8.542;2022-10-19T02:08:07;6.12;;;4.25;;
9892;SDS011;4985;49.092;8.542;2022-10-19T02:10:38;4.75;;;4.00;;
9892;SDS011;4985;49.092;8.542;2022-10-19T02:13:07;5.62;;;4.47;;
9892;SDS011;4985;49.092;8.542;2022-10-19T02:15:37;6.35;;;4.75;;
9892;SDS011;4985;49.092;8.542;2022-10-19T02:18:09;4.75;;;3.83;;
9892;SDS011;4985;49.092;8.542;2022-10-19T02:20:37;4.43;;;3.35;;
9892;SDS011;4985;49.092;8.542;2022-10-19T02:23:04;3.83;;;3.42;;
9892;SDS011;4985;49.092;8.542;2022-10-19T02:25:32;4.65;;;3.85;;
9892;SDS011;4985;49.092;8.542;2022-10-19T02:27:59;4.40;;;3.83;;
9892;SDS011;4985;49.092;8.542;2022-10-19T02:30:27;3.47;;;3.17;;
9892;SDS011;4985;49.092;8.542;2022-10-19T02:32:55;9.55;;;3.78;;
9892;SDS011;4985;49.092;8.542;2022-10-19T02:35:22;5.03;;;3.47;;
9892;SDS011;4985;49.092;8.542;2022-10-19T02:37:48;4.97;;;3.62;;
9892;SDS011;4985;49.092;8.542;2022-10-19T02:40:15;4.50;;;3.60;;
9892;SDS011;4985;49.092;8.542;2022-10-19T02:42:42;5.85;;;3.33;;
9892;SDS011;4985;49.092;8.542;2022-10-19T02:45:17;4.37;;;3.72;;
9892;SDS011;4985;49.092;8.542;2022-10-19T02:47:48;4.97;;;3.80;;
9892;SDS011;4985;49.092;8.542;2022-10-19T02:50:18;4.57;;;3.95;;
9892;SDS011;4985;49.092;8.542;2022-10-19T02:52:46;4.15;;;3.25;;
9892;SDS011;4985;49.092;8.542;2022-10-19T02:55:13;4.75;;;3.65;;
9892;SDS011;4985;49.092;8.542;2022-10-19T02:57:39;4.70;;;4.03;;
9892;SDS011;4985;49.092;8.542;2022-10-19T03:00:06;5.07;;;4.00;;
9892;SDS011;4985;49.092;8.542;2022-10-19T03:02:34;3.75;;;3.12;;
9892;SDS011;4985;49.092;8.542;2022-10-19T03:05:01;4.12;;;3.42;;
9892;SDS011;4985;49.092;8.542;2022-10-19T03:07:29;3.10;;;2.80;;
9892;SDS011;4985;49.092;8.542;2022-10-19T03:09:55;3.47;;;3.17;;
9892;SDS011;4985;49.092;8.542;2022-10-19T03:12:22;2.90;;;2.47;;
9892;SDS011;4985;49.092;8.542;2022-10-19T03:14:48;3.22;;;2.70;;
9892;SDS011;4985;49.092;8.542;2022-10-19T03:17:15;3.47;;;2.97;;
9892;SDS011;4985;49.092;8.542;2022-10-19T03:19:42;3.20;;;2.90;;
9892;SDS011;4985;49.092;8.542;2022-10-19T03:22:08;3.15;;;2.85;;
9892;SDS011;4985;49.092;8.542;2022-10-19T03:24:36;3.72;;;2.33;;
9892;SDS011;4985;49.092;8.542;2022-10-19T03:27:03;4.43;;;3.10;;
9892;SDS011;4985;49.092;8.542;2022-10-19T03:29:29;3.37;;;2.87;;
9892;SDS011;4985;49.092;8.542;2022-10-19T03:31:56;3.00;;;2.60;;
9892;SDS011;4985;49.092;8.542;2022-10-19T03:34:22;3.10;;;2.80;;
9892;SDS011;4985;49.092;8.542;2022-10-19T03:36:49;3.87;;;2.95;;
9892;SDS011;4985;49.092;8.542;2022-10-19T03:39:15;3.20;;;2.90;;
9892;SDS011;4985;49.092;8.542;2022-10-19T03:41:43;3.35;;;2.87;;
9892;SDS011;4985;49.092;8.542;2022-10-19T03:44:10;3.72;;;3.08;;
9892;SDS011;4985;49.092;8.542;2022-10-19T03:46:38;4.78;;;3.00;;
9892;SDS011;4985;49.092;8.542;2022-10-19T03:49:04;3.47;;;3.08;;
9892;SDS011;4985;49.092;8.542;2022-10-19T03:51:31;3.80;;;3.03;;
9892;SDS011;4985;49.092;8.542;2022-10-19T03:53:59;6.93;;;3.08;;
9892;SDS011;4985;49.092;8.542;2022-10-19T03:56:27;5.50;;;3.50;;
9892;SDS011;4985;49.092;8.542;2022-10-19T03:58:57;5.50;;;3.47;;
9892;SDS011;4985;49.092;8.542;2022-10-19T04:01:25;3.95;;;2.92;;
9892;SDS011;4985;49.092;8.542;2022-10-19T04:03:53;5.45;;;3.40;;
9892;SDS011;4985;49.092;8.542;2022-10-19T04:06:21;4.03;;;3.22;;
9892;SDS011;4985;49.092;8.542;2022-10-19T04:08:50;4.10;;;3.05;;
9892;SDS011;4985;49.092;8.542;2022-10-19T04:11:18;7.97;;;3.25;;
9892;SDS011;4985;49.092;8.542;2022-10-19T04:13:47;5.47;;;3.70;;
9892;SDS011;4985;49.092;8.542;2022-10-19T04:16:15;6.90;;;3.85;;
9892;SDS011;4985;49.092;8.542;2022-10-19T04:18:42;5.45;;;3.92;;
9892;SDS011;4985;49.092;8.542;2022-10-19T04:21:16;7.72;;;5.05;;
9892;SDS011;4985;49.092;8.542;2022-10-19T04:23:45;7.85;;;5.10;;
9892;SDS011;4985;49.092;8.542;2022-10-19T04:26:12;5.93;;;4.57;;
9892;SDS011;4985;49.092;8.542;2022-10-19T04:28:39;7.00;;;4.78;;
9892;SDS011;4985;49.092;8.542;2022-10-19T04:31:05;5.78;;;4.53;;
9892;SDS011;4985;49.092;8.542;2022-10-19T04:33:34;7.15;;;4.20;;
9892;SDS011;4985;49.092;8.542;2022-10-19T04:36:00;4.85;;;3.95;;
9892;SDS011;4985;49.092;8.542;2022-10-19T04:38:28;5.55;;;3.83;;
9892;SDS011;4985;49.092;8.542;2022-10-19T04:40:59;10.10;;;4.60;;
9892;SDS011;4985;49.092;8.542;2022-10-19T04:43:26;6.35;;;4.25;;
9892;SDS011;4985;49.092;8.542;2022-10-19T04:45:53;6.90;;;4.65;;
9892;SDS011;4985;49.092;8.542;2022-10-19T04:48:19;9.98;;;4.40;;
9892;SDS011;4985;49.092;8.542;2022-10-19T04:50:47;6.47;;;5.07;;
9892;SDS011;4985;49.092;8.542;2022-10-19T04:53:13;7.12;;;4.87;;
9892;SDS011;4985;49.092;8.542;2022-10-19T04:55:40;7.05;;;4.75;;
9892;SDS011;4985;49.092;8.542;2022-10-19T04:58:07;7.15;;;5.15;;
9892;SDS011;4985;49.092;8.542;2022-10-19T05:00:34;13.98;;;4.80;;
9892;SDS011;4985;49.092;8.542;2022-10-19T05:03:03;8.63;;;4.70;;
9892;SDS011;4985;49.092;8.542;2022-10-19T05:05:30;5.25;;;4.20;;
9892;SDS011;4985;49.092;8.542;2022-10-19T05:07:58;5.15;;;3.85;;
9892;SDS011;4985;49.092;8.542;2022-10-19T05:10:24;6.95;;;4.62;;
9892;SDS011;4985;49.092;8.542;2022-10-19T05:12:51;7.10;;;5.28;;
9892;SDS011;4985;49.092;8.542;2022-10-19T05:15:18;7.53;;;5.62;;
9892;SDS011;4985;49.092;8.542;2022-10-19T05:17:44;7.60;;;5.47;;
9892;SDS011;4985;49.092;8.542;2022-10-19T05:20:11;7.07;;;5.18;;
9892;SDS011;4985;49.092;8.542;2022-10-19T05:22:38;6.80;;;4.68;;
9892;SDS011;4985;49.092;8.542;2022-10-19T05:25:06;6.40;;;4.80;;
9892;SDS011;4985;49.092;8.542;2022-10-19T05:27:33;5.37;;;4.75;;
9892;SDS011;4985;49.092;8.542;2022-10-19T05:30:00;6.35;;;4.25;;
9892;SDS011;4985;49.092;8.542;2022-10-19T05:32:27;5.03;;;4.22;;
9892;SDS011;4985;49.092;8.542;2022-10-19T05:34:53;5.35;;;4.22;;
9892;SDS011;4985;49.092;8.542;2022-10-19T05:37:20;5.70;;;3.80;;
9892;SDS011;4985;49.092;8.542;2022-10-19T05:39:47;6.30;;;4.00;;
9892;SDS011;4985;49.092;8.542;2022-10-19T05:42:15;4.70;;;4.07;;
9892;SDS011;4985;49.092;8.542;2022-10-19T05:44:41;4.60;;;4.05;;
9892;SDS011;4985;49.092;8.542;2022-10-19T05:47:08;6.05;;;4.18;;
9892;SDS011;4985;49.092;8.542;2022-10-19T05:49:34;5.05;;;4.30;;
9892;SDS011;4985;49.092;8.542;2022-10-19T05:52:01;5.82;;;4.22;;
9892;SDS011;4985;49.092;8.542;2022-10-19T05:54:28;5.30;;;4.20;;
9892;SDS011;4985;49.092;8.542;2022-10-19T05:56:54;6.18;;;4.43;;
9892;SDS011;4985;49.092;8.542;2022-10-19T05:59:22;5.78;;;4.37;;
9892;SDS011;4985;49.092;8.542;2022-10-19T06:01:49;6.37;;;5.12;;
9892;SDS011;4985;49.092;8.542;2022-10-19T06:04:16;6.87;;;4.47;;
9892;SDS011;4985;49.092;8.542;2022-10-19T06:06:42;5.80;;;4.57;;
9892;SDS011;4985;49.092;8.542;2022-10-19T06:09:09;5.55;;;4.47;;
9892;SDS011;4985;49.092;8.542;2022-10-19T06:11:38;5.43;;;4.57;;
9892;SDS011;4985;49.092;8.542;2022-10-19T06:14:06;5.80;;;4.07;;
9892;SDS011;4985;49.092;8.542;2022-10-19T06:16:35;4.85;;;3.92;;
9892;SDS011;4985;49.092;8.542;2022-10-19T06:19:03;5.60;;;4.25;;
9892;SDS011;4985;49.092;8.542;2022-10-19T06:21:30;5.28;;;3.92;;
9892;SDS011;4985;49.092;8.542;2022-10-19T06:23:59;5.12;;;4.03;;
9892;SDS011;4985;49.092;8.542;2022-10-19T06:26:27;5.15;;;4.07;;
9892;SDS011;4985;49.092;8.542;2022-10-19T06:28:55;4.65;;;4.00;;
9892;SDS011;4985;49.092;8.542;2022-10-19T06:31:24;7.00;;;3.75;;
9892;SDS011;4985;49.092;8.542;2022-10-19T06:33:52;5.05;;;4.00;;
9892;SDS011;4985;49.092;8.542;2022-10-19T06:36:19;4.60;;;3.75;;
9892;SDS011;4985;49.092;8.542;2022-10-19T06:38:47;5.65;;;4.20;;
9892;SDS011;4985;49.092;8.542;2022-10-19T06:41:14;5.47;;;3.87;;
9892;SDS011;4985;49.092;8.542;2022-10-19T06:43:42;4.03;;;3.42;;
9892;SDS011;4985;49.092;8.542;2022-10-19T06:46:09;5.50;;;3.00;;
9892;SDS011;4985;49.092;8.542;2022-10-19T06:48:36;8.73;;;4.60;;
9892;SDS011;4985;49.092;8.542;2022-10-19T06:51:05;10.93;;;4.72;;
9892;SDS011;4985;49.092;8.542;2022-10-19T06:53:32;9.20;;;4.28;;
9892;SDS011;4985;49.092;8.542;2022-10-19T06:55:59;6.55;;;4.07;;
9892;SDS011;4985;49.092;8.542;2022-10-19T06:58:27;8.38;;;4.37;;
9892;SDS011;4985;49.092;8.542;2022-10-19T07:00:54;7.57;;;4.30;;
9892;SDS011;4985;49.092;8.542;2022-10-19T07:03:22;8.43;;;4.15;;
9892;SDS011;4985;49.092;8.542;2022-10-19T07:05:52;5.55;;;4.10;;
9892;SDS011;4985;49.092;8.542;2022-10-19T07:08:21;8.90;;;5.10;;
9892;SDS011;4985;49.092;8.542;2022-10-19T07:10:49;7.97;;;4.25;;
9892;SDS011;4985;49.092;8.542;2022-10-19T07:13:16;7.75;;;4.78;;
9892;SDS011;4985;49.092;8.542;2022-10-19T07:15:43;5.40;;;4.35;;
9892;SDS011;4985;49.092;8.542;2022-10-19T07:18:09;15.45;;;4.65;;
9892;SDS011;4985;49.092;8.542;2022-10-19T07:20:36;5.65;;;4.43;;
9892;SDS011;4985;49.092;8.542;2022-10-19T07:23:02;6.43;;;4.28;;
9892;SDS011;4985;49.092;8.542;2022-10-19T07:25:30;6.20;;;5.22;;
9892;SDS011;4985;49.092;8.542;2022-10-19T07:27:57;5.10;;;4.12;;
9892;SDS011;4985;49.092;8.542;2022-10-19T07:30:23;5.70;;;4.43;;
9892;SDS011;4985;49.092;8.542;2022-10-19T07:32:50;5.57;;;4.07;;
9892;SDS011;4985;49.092;8.542;2022-10-19T07:35:16;7.32;;;4.90;;
9892;SDS011;4985;49.092;8.542;2022-10-19T07:37:43;7.37;;;4.25;;
9892;SDS011;4985;49.092;8.542;2022-10-19T07:40:10;6.87;;;4.65;;
9892;SDS011;4985;49.092;8.542;2022-10-19T07:42:39;5.10;;;3.97;;
9892;SDS011;4985;49.092;8.542;2022-10-19T07:45:06;5.40;;;4.55;;
9892;SDS011;4985;49.092;8.542;2022-10-19T07:47:33;5.80;;;4.25;;
9892;SDS011;4985;49.092;8.542;2022-10-19T07:49:59;4.72;;;4.22;;
9892;SDS011;4985;49.092;8.542;2022-10-19T07:52:26;6.18;;;4.55;;
9892;SDS011;4985;49.092;8.542;2022-10-19T07:54:52;5.78;;;4.62;;
9892;SDS011;4985;49.092;8.542;2022-10-19T07:57:19;5.35;;;4.03;;
9892;SDS011;4985;49.092;8.542;2022-10-19T07:59:47;7.10;;;4.95;;
9892;SDS011;4985;49.092;8.542;2022-10-19T08:02:14;4.80;;;3.67;;
9892;SDS011;4985;49.092;8.542;2022-10-19T08:04:42;5.65;;;4.05;;
9892;SDS011;4985;49.092;8.542;2022-10-19T08:07:09;9.15;;;4.70;;
9892;SDS011;4985;49.092;8.542;2022-10-19T08:09:35;5.62;;;4.22;;
9892;SDS011;4985;49.092;8.542;2022-10-19T08:12:03;5.35;;;4.45;;
9892;SDS011;4985;49.092;8.542;2022-10-19T08:14:31;8.18;;;4.65;;
9892;SDS011;4985;49.092;8.542;2022-10-19T08:16:59;8.68;;;4.12;;
9892;SDS011;4985;49.092;8.542;2022-10-19T08:19:26;5.72;;;3.53;;
9892;SDS011;4985;49.092;8.542;2022-10-19T08:21:52;6.32;;;4.47;;
9892;SDS011;4985;49.092;8.542;2022-10-19T08:24:19;5.40;;;3.70;;
9892;SDS011;4985;49.092;8.542;2022-10-19T08:26:46;4.28;;;3.67;;
9892;SDS011;4985;49.092;8.542;2022-10-19T08:29:16;5.55;;;4.15;;
9892;SDS011;4985;49.092;8.542;2022-10-19T08:31:44;4.70;;;3.83;;
9892;SDS011;4985;49.092;8.542;2022-10-19T08:34:13;4.50;;;3.87;;
9892;SDS011;4985;49.092;8.542;2022-10-19T08:36:41;6.18;;;4.20;;
9892;SDS011;4985;49.092;8.542;2022-10-19T08:39:08;6.85;;;4.65;;
9892;SDS011;4985;49.092;8.542;2022-10-19T08:41:49;5.50;;;4.57;;
9892;SDS011;4985;49.092;8.542;2022-10-19T08:44:25;5.45;;;4.28;;
9892;SDS011;4985;49.092;8.542;2022-10-19T08:47:07;5.30;;;4.18;;
9892;SDS011;4985;49.092;8.542;2022-10-19T08:49:41;5.50;;;4.20;;
9892;SDS011;4985;49.092;8.542;2022-10-19T08:52:09;4.45;;;3.28;;
9892;SDS011;4985;49.092;8.542;2022-10-19T08:54:39;4.65;;;3.50;;
9892;SDS011;4985;49.092;8.542;2022-10-19T08:57:12;5.70;;;4.18;;
9892;SDS011;4985;49.092;8.542;2022-10-19T08:59:49;6.05;;;4.20;;
9892;SDS011;4985;49.092;8.542;2022-10-19T09:02:26;12.88;;;4.80;;
9892;SDS011;4985;49.092;8.542;2022-10-19T09:05:08;5.68;;;4.78;;
9892;SDS011;4985;49.092;8.542;2022-10-19T09:07:40;15.20;;;4.18;;
9892;SDS011;4985;49.092;8.542;2022-10-19T09:10:13;5.22;;;4.00;;
9892;SDS011;4985;49.092;8.542;2022-10-19T09:12:44;5.47;;;3.92;;
9892;SDS011;4985;49.092;8.542;2022-10-19T09:15:16;5.32;;;4.25;;
9892;SDS011;4985;49.092;8.542;2022-10-19T09:17:45;5.65;;;4.30;;
9892;SDS011;4985;49.092;8.542;2022-10-19T09:20:14;6.28;;;4.22;;
9892;SDS011;4985;49.092;8.542;2022-10-19T09:22:44;5.40;;;4.65;;
9892;SDS011;4985;49.092;8.542;2022-10-19T09:25:12;6.10;;;4.85;;
9892;SDS011;4985;49.092;8.542;2022-10-19T09:27:44;8.38;;;4.95;;
9892;SDS011;4985;49.092;8.542;2022-10-19T09:30:15;7.75;;;4.85;;
9892;SDS011;4985;49.092;8.542;2022-10-19T09:32:44;6.78;;;4.65;;
9892;SDS011;4985;49.092;8.542;2022-10-19T09:35:24;6.07;;;4.53;;
9892;SDS011;4985;49.092;8.542;2022-10-19T09:37:54;7.00;;;4.78;;
9892;SDS011;4985;49.092;8.542;2022-10-19T09:40:23;5.80;;;4.60;;
9892;SDS011;4985;49.092;8.542;2022-10-19T09:42:51;5.32;;;4.40;;
9892;SDS011;4985;49.092;8.542;2022-10-19T09:45:27;7.70;;;4.35;;
9892;SDS011;4985;49.092;8.542;2022-10-19T09:47:58;7.07;;;4.80;;
9892;SDS011;4985;49.092;8.542;2022-10-19T09:50:29;7.95;;;5.15;;
9892;SDS011;4985;49.092;8.542;2022-10-19T09:52:56;8.82;;;5.60;;
9892;SDS011;4985;49.092;8.542;2022-10-19T09:55:26;9.57;;;5.95;;
9892;SDS011;4985;49.092;8.542;2022-10-19T09:57:59;7.47;;;5.25;;
9892;SDS011;4985;49.092;8.542;2022-10-19T10:00:32;8.27;;;4.82;;
9892;SDS011;4985;49.092;8.542;2022-10-19T10:03:00;8.30;;;5.30;;
9892;SDS011;4985;49.092;8.542;2022-10-19T10:05:32;7.05;;;5.37;;
9892;SDS011;4985;49.092;8.542;2022-10-19T10:08:00;6.37;;;4.85;;
9892;SDS011;4985;49.092;8.542;2022-10-19T10:10:28;7.75;;;5.47;;
9892;SDS011;4985;49.092;8.542;2022-10-19T10:13:00;7.68;;;5.70;;
9892;SDS011;4985;49.092;8.542;2022-10-19T10:15:28;7.22;;;4.53;;
9892;SDS011;4985;49.092;8.542;2022-10-19T10:18:01;4.43;;;4.00;;
9892;SDS011;4985;49.092;8.542;2022-10-19T10:20:29;3.50;;;3.00;;
9892;SDS011;4985;49.092;8.542;2022-10-19T10:22:59;3.20;;;2.62;;
9892;SDS011;4985;49.092;8.542;2022-10-19T10:25:29;3.45;;;3.00;;
9892;SDS011;4985;49.092;8.542;2022-10-19T10:27:58;3.92;;;2.97;;
9892;SDS011;4985;49.092;8.542;2022-10-19T10:30:28;3.87;;;2.60;;
9892;SDS011;4985;49.092;8.542;2022-10-19T10:32:58;3.97;;;2.70;;
9892;SDS011;4985;49.092;8.542;2022-10-19T10:35:28;4.55;;;2.87;;
9892;SDS011;4985;49.092;8.542;2022-10-19T10:38:05;3.53;;;2.53;;
9892;SDS011;4985;49.092;8.542;2022-10-19T10:40:34;4.22;;;2.78;;
9892;SDS011;4985;49.092;8.542;2022-10-19T10:43:04;3.00;;;2.67;;
9892;SDS011;4985;49.092;8.542;2022-10-19T10:45:35;4.00;;;2.47;;
9892;SDS011;4985;49.092;8.542;2022-10-19T10:48:10;3.25;;;2.58;;
9892;SDS011;4985;49.092;8.542;2022-10-19T10:50:43;3.28;;;2.50;;
9892;SDS011;4985;49.092;8.542;2022-10-19T10:56:04;3.05;;;2.15;;
9892;SDS011;4985;49.092;8.542;2022-10-19T10:58:45;2.65;;;2.17;;
9892;SDS011;4985;49.092;8.542;2022-10-19T11:01:17;2.80;;;2.08;;
9892;SDS011;4985;49.092;8.542;2022-10-19T11:03:46;2.03;;;1.83;;
9892;SDS011;4985;49.092;8.542;2022-10-19T11:06:18;2.72;;;2.00;;
9892;SDS011;4985;49.092;8.542;2022-10-19T11:08:50;2.70;;;2.05;;
9892;SDS011;4985;49.092;8.542;2022-10-19T11:11:24;5.57;;;2.12;;
9892;SDS011;4985;49.092;8.542;2022-10-19T11:13:55;2.47;;;2.22;;
9892;SDS011;4985;49.092;8.542;2022-10-19T11:16:25;3.12;;;2.58;;
9892;SDS011;4985;49.092;8.542;2022-10-19T11:18:57;3.92;;;2.67;;
9892;SDS011;4985;49.092;8.542;2022-10-19T11:21:33;4.93;;;2.65;;
9892;SDS011;4985;49.092;8.542;2022-10-19T11:24:06;3.78;;;3.15;;
9892;SDS011;4985;49.092;8.542;2022-10-19T11:26:45;4.95;;;2.83;;
9892;SDS011;4985;49.092;8.542;2022-10-19T11:29:26;3.20;;;2.58;;
9892;SDS011;4985;49.092;8.542;2022-10-19T11:32:03;2.28;;;1.98;;
9892;SDS011;4985;49.092;8.542;2022-10-19T11:34:43;9.23;;;2.60;;
9892;SDS011;4985;49.092;8.542;2022-10-19T11:37:23;9.75;;;3.12;;
9892;SDS011;4985;49.092;8.542;2022-10-19T11:39:59;3.00;;;2.70;;
9892;SDS011;4985;49.092;8.542;2022-10-19T11:42:35;3.05;;;2.78;;
9892;SDS011;4985;49.092;8.542;2022-10-19T11:45:14;4.15;;;3.12;;
9892;SDS011;4985;49.092;8.542;2022-10-19T11:47:51;3.03;;;2.25;;
9892;SDS011;4985;49.092;8.542;2022-10-19T11:50:35;2.55;;;2.25;;
9892;SDS011;4985;49.092;8.542;2022-10-19T11:53:11;3.58;;;2.15;;
9892;SDS011;4985;49.092;8.542;2022-10-19T11:55:45;3.25;;;2.05;;
9892;SDS011;4985;49.092;8.542;2022-10-19T11:58:28;4.65;;;2.00;;
9892;SDS011;4985;49.092;8.542;2022-10-19T12:01:09;2.53;;;2.08;;
9892;SDS011;4985;49.092;8.542;2022-10-19T12:03:43;2.95;;;1.77;;
9892;SDS011;4985;49.092;8.542;2022-10-19T12:06:21;3.03;;;1.45;;
9892;SDS011;4985;49.092;8.542;2022-10-19T12:08:58;4.10;;;1.60;;
9892;SDS011;4985;49.092;8.542;2022-10-19T12:11:40;2.08;;;1.87;;
9892;SDS011;4985;49.092;8.542;2022-10-19T12:14:17;1.83;;;1.50;;
9892;SDS011;4985;49.092;8.542;2022-10-19T12:16:47;1.40;;;1.30;;
9892;SDS011;4985;49.092;8.542;2022-10-19T12:19:19;1.77;;;1.52;;
9892;SDS011;4985;49.092;8.542;2022-10-19T12:21:50;1.48;;;1.37;;
9892;SDS011;4985;49.092;8.542;2022-10-19T12:24:21;1.73;;;1.62;;
9892;SDS011;4985;49.092;8.542;2022-10-19T12:26:52;2.37;;;1.55;;
9892;SDS011;4985;49.092;8.542;2022-10-19T12:29:21;3.83;;;2.05;;
9892;SDS011;4985;49.092;8.542;2022-10-19T12:31:51;2.67;;;1.50;;
9892;SDS011;4985;49.092;8.542;2022-10-19T12:34:23;1.60;;;1.50;;
9892;SDS011;4985;49.092;8.542;2022-10-19T12:36:58;1.60;;;1.50;;
9892;SDS011;4985;49.092;8.542;2022-10-19T12:39:29;2.15;;;1.55;;
9892;SDS011;4985;49.092;8.542;2022-10-19T12:42:08;2.00;;;1.50;;
9892;SDS011;4985;49.092;8.542;2022-10-19T12:45:02;2.53;;;1.50;;
9892;SDS011;4985;49.092;8.542;2022-10-19T12:47:38;1.98;;;1.77;;
9892;SDS011;4985;49.092;8.542;2022-10-19T12:50:05;2.75;;;1.55;;
9892;SDS011;4985;49.092;8.542;2022-10-19T12:52:34;1.65;;;1.42;;
9892;SDS011;4985;49.092;8.542;2022-10-19T12:55:23;6.53;;;1.80;;
9892;SDS011;4985;49.092;8.542;2022-10-19T12:57:57;1.50;;;1.40;;
9892;SDS011;4985;49.092;8.542;2022-10-19T13:00:27;3.58;;;1.50;;
9892;SDS011;4985;49.092;8.542;2022-10-19T13:02:57;1.65;;;1.33;;
9892;SDS011;4985;49.092;8.542;2022-10-19T13:05:27;2.53;;;1.60;;
9892;SDS011;4985;49.092;8.542;2022-10-19T13:07:55;2.67;;;1.12;;
9892;SDS011;4985;49.092;8.542;2022-10-19T13:10:23;1.45;;;1.27;;
9892;SDS011;4985;49.092;8.542;2022-10-19T13:12:52;2.90;;;1.42;;
9892;SDS011;4985;49.092;8.542;2022-10-19T13:21:44;1.23;;;1.12;;
9892;SDS011;4985;49.092;8.542;2022-10-19T13:24:25;1.27;;;1.17;;
9892;SDS011;4985;49.092;8.542;2022-10-19T13:29:53;1.52;;;1.40;;
9892;SDS011;4985;49.092;8.542;2022-10-19T13:32:39;3.42;;;1.60;;
9892;SDS011;4985;49.092;8.542;2022-10-19T13:38:10;1.50;;;1.40;;
9892;SDS011;4985;49.092;8.542;2022-10-19T13:43:39;3.03;;;1.70;;
9892;SDS011;4985;49.092;8.542;2022-10-19T13:46:15;2.03;;;1.40;;
9892;SDS011;4985;49.092;8.542;2022-10-19T13:51:52;2.20;;;1.55;;
9892;SDS011;4985;49.092;8.542;2022-10-19T13:54:34;1.67;;;1.58;;
9892;SDS011;4985;49.092;8.542;2022-10-19T13:57:20;1.67;;;1.58;;
9892;SDS011;4985;49.092;8.542;2022-10-19T14:02:54;1.85;;;1.40;;
9892;SDS011;4985;49.092;8.542;2022-10-19T14:08:39;2.03;;;1.80;;
9892;SDS011;4985;49.092;8.542;2022-10-19T14:11:20;2.08;;;1.87;;
9892;SDS011;4985;49.092;8.542;2022-10-19T14:14:05;2.40;;;2.20;;
9892;SDS011;4985;49.092;8.542;2022-10-19T14:16:43;2.22;;;2.03;;
9892;SDS011;4985;49.092;8.542;2022-10-19T14:19:11;2.30;;;2.00;;
9892;SDS011;4985;49.092;8.542;2022-10-19T14:21:38;4.43;;;2.08;;
9892;SDS011;4985;49.092;8.542;2022-10-19T14:24:17;2.80;;;1.92;;
9892;SDS011;4985;49.092;8.542;2022-10-19T14:26:46;3.10;;;2.28;;
9892;SDS011;4985;49.092;8.542;2022-10-19T14:29:13;2.58;;;2.20;;
9892;SDS011;4985;49.092;8.542;2022-10-19T14:31:40;4.95;;;2.28;;
9892;SDS011;4985;49.092;8.542;2022-10-19T14:34:07;2.12;;;1.92;;
9892;SDS011;4985;49.092;8.542;2022-10-19T14:36:36;3.10;;;2.22;;
9892;SDS011;4985;49.092;8.542;2022-10-19T14:39:04;2.33;;;2.03;;
9892;SDS011;4985;49.092;8.542;2022-10-19T14:41:33;2.30;;;1.90;;
9892;SDS011;4985;49.092;8.542;2022-10-19T14:46:53;2.25;;;2.05;;
9892;SDS011;4985;49.092;8.542;2022-10-19T14:49:20;3.62;;;2.22;;
9892;SDS011;4985;49.092;8.542;2022-10-19T14:51:47;2.92;;;2.08;;
9892;SDS011;4985;49.092;8.542;2022-10-19T14:54:19;2.25;;;2.05;;
9892;SDS011;4985;49.092;8.542;2022-10-19T14:56:54;1.75;;;1.65;;
9892;SDS011;4985;49.092;8.542;2022-10-19T14:59:25;2.20;;;1.80;;
9892;SDS011;4985;49.092;8.542;2022-10-19T15:01:57;4.62;;;1.80;;
9892;SDS011;4985;49.092;8.542;2022-10-19T15:04:26;3.22;;;2.00;;
9892;SDS011;4985;49.092;8.542;2022-10-19T15:06:56;7.85;;;3.20;;
9892;SDS011;4985;49.092;8.542;2022-10-19T15:09:25;2.72;;;2.10;;
9892;SDS011;4985;49.092;8.542;2022-10-19T15:11:55;4.68;;;2.03;;
9892;SDS011;4985;49.092;8.542;2022-10-19T15:14:30;2.28;;;1.87;;
9892;SDS011;4985;49.092;8.542;2022-10-19T15:16:57;4.10;;;2.20;;
9892;SDS011;4985;49.092;8.542;2022-10-19T15:19:27;2.20;;;1.90;;
9892;SDS011;4985;49.092;8.542;2022-10-19T15:22:05;3.15;;;2.03;;
9892;SDS011;4985;49.092;8.542;2022-10-19T15:24:37;2.53;;;1.73;;
9892;SDS011;4985;49.092;8.542;2022-10-19T15:27:08;4.22;;;2.20;;
9892;SDS011;4985;49.092;8.542;2022-10-19T15:29:37;5.25;;;2.17;;
9892;SDS011;4985;49.092;8.542;2022-10-19T15:32:14;5.05;;;2.05;;
9892;SDS011;4985;49.092;8.542;2022-10-19T15:34:44;5.80;;;2.00;;
9892;SDS011;4985;49.092;8.542;2022-10-19T15:39:43;3.75;;;2.05;;
9892;SDS011;4985;49.092;8.542;2022-10-19T15:48:14;2.47;;;1.87;;
9892;SDS011;4985;49.092;8.542;2022-10-19T15:50:49;2.45;;;1.92;;
9892;SDS011;4985;49.092;8.542;2022-10-19T15:53:17;3.08;;;1.80;;
9892;SDS011;4985;49.092;8.542;2022-10-19T15:55:44;2.58;;;2.20;;
9892;SDS011;4985;49.092;8.542;2022-10-19T15:58:11;2.45;;;2.00;;
9892;SDS011;4985;49.092;8.542;2022-10-19T16:00:40;2.50;;;1.77;;
9892;SDS011;4985;49.092;8.542;2022-10-19T16:03:07;3.42;;;2.17;;
9892;SDS011;4985;49.092;8.542;2022-10-19T16:05:34;1.98;;;1.73;;
9892;SDS011;4985;49.092;8.542;2022-10-19T16:08:01;2.60;;;1.90;;
9892;SDS011;4985;49.092;8.542;2022-10-19T16:10:28;4.12;;;2.03;;
9892;SDS011;4985;49.092;8.542;2022-10-19T16:12:54;2.60;;;2.20;;
9892;SDS011;4985;49.092;8.542;2022-10-19T16:15:21;2.42;;;2.03;;